logo
Rechercher aéroport 
image banner adimage banner adimage banner ad
image banner ad

1CA7 - L A Times Costa Mesa

Situé à Costa Mesa, United States

ICAO - 1CA7, IATA -

Données fournies par Airmate  

Information générale

Coordonnées: N33°41'35" W117°55'1"
Élévation : 35 feet MSL.
Variation magnétique : 14° East
Voir autres Aéroports à California

Données opérationnelles

Special qualification required
Heure actuelle UTC:
Heure actuelle locale:
METAR: KSNA 281258Z 00000KT 10SM CLR 22/18 A2989 RMK AO2 T02170178
TAF: KSNA 281259Z 2813/2912 VRB03KT 6SM BR SCT005 FM281500 28005KT P6SM SCT004 SCT150 FM281900 22010KT P6SM SCT100 SCT150 FM290300 18006KT P6SM FEW005 TEMPO 2908/2912 4SM BR BKN004
Voir NOTAMs / SUP AIP / TFR affectant cet aéroport [VIEW]
Fréquences de communication: [VIEW]

Pistes:

Coordonnées de l'aéroport

Adresse: Costa Mesa United States

Vue satellite de 1CA7